sensor_id;sensor_type;location;lat;lon;timestamp;pressure;altitude;pressure_sealevel;temperature;humidity
71195;BME280;58908;51.426;7.714;2022-07-21T00:00:56;99962.97;;;19.00;100.00
71195;BME280;58908;51.426;7.714;2022-07-21T00:03:21;99956.06;;;18.97;100.00
71195;BME280;58908;51.426;7.714;2022-07-21T00:05:47;99955.06;;;18.98;100.00
71195;BME280;58908;51.426;7.714;2022-07-21T00:08:12;99945.72;;;18.83;100.00
71195;BME280;58908;51.426;7.714;2022-07-21T00:10:38;99934.75;;;18.86;100.00
71195;BME280;58908;51.426;7.714;2022-07-21T00:13:03;99932.38;;;18.83;100.00
71195;BME280;58908;51.426;7.714;2022-07-21T00:15:28;99938.13;;;18.88;100.00
71195;BME280;58908;51.426;7.714;2022-07-21T00:17:54;99939.88;;;18.89;100.00
71195;BME280;58908;51.426;7.714;2022-07-21T00:20:19;99936.84;;;18.83;100.00
71195;BME280;58908;51.426;7.714;2022-07-21T00:22:44;99944.16;;;18.81;100.00
71195;BME280;58908;51.426;7.714;2022-07-21T00:25:10;99957.63;;;18.70;100.00
71195;BME280;58908;51.426;7.714;2022-07-21T00:27:36;99965.09;;;18.66;100.00
71195;BME280;58908;51.426;7.714;2022-07-21T00:30:02;99969.56;;;18.66;100.00
71195;BME280;58908;51.426;7.714;2022-07-21T00:32:28;99969.97;;;18.61;100.00
71195;BME280;58908;51.426;7.714;2022-07-21T00:34:53;99955.09;;;18.68;100.00
71195;BME280;58908;51.426;7.714;2022-07-21T00:37:18;99966.19;;;18.64;100.00
71195;BME280;58908;51.426;7.714;2022-07-21T00:39:43;99972.13;;;18.67;100.00
71195;BME280;58908;51.426;7.714;2022-07-21T00:42:19;99979.81;;;18.61;100.00
71195;BME280;58908;51.426;7.714;2022-07-21T00:44:44;99979.00;;;18.70;100.00
71195;BME280;58908;51.426;7.714;2022-07-21T00:47:09;99971.97;;;18.69;100.00
71195;BME280;58908;51.426;7.714;2022-07-21T00:49:35;99969.06;;;18.72;100.00
71195;BME280;58908;51.426;7.714;2022-07-21T00:52:00;99967.78;;;18.76;100.00
71195;BME280;58908;51.426;7.714;2022-07-21T00:54:25;99981.28;;;18.74;100.00
71195;BME280;58908;51.426;7.714;2022-07-21T00:56:50;99979.50;;;18.84;100.00
71195;BME280;58908;51.426;7.714;2022-07-21T00:59:16;99987.66;;;18.83;100.00
71195;BME280;58908;51.426;7.714;2022-07-21T01:01:41;99981.19;;;18.85;100.00
71195;BME280;58908;51.426;7.714;2022-07-21T01:04:06;99979.38;;;18.86;100.00
71195;BME280;58908;51.426;7.714;2022-07-21T01:06:31;99975.13;;;18.83;100.00
71195;BME280;58908;51.426;7.714;2022-07-21T01:09:03;99987.53;;;18.84;100.00
71195;BME280;58908;51.426;7.714;2022-07-21T01:11:28;99988.19;;;18.77;100.00
71195;BME280;58908;51.426;7.714;2022-07-21T01:13:53;99987.34;;;18.76;100.00
71195;BME280;58908;51.426;7.714;2022-07-21T01:16:19;99988.31;;;18.75;100.00
71195;BME280;58908;51.426;7.714;2022-07-21T01:18:44;99986.34;;;18.77;100.00
71195;BME280;58908;51.426;7.714;2022-07-21T01:21:52;99988.00;;;18.69;100.00
71195;BME280;58908;51.426;7.714;2022-07-21T01:23:58;99978.56;;;18.65;100.00
71195;BME280;58908;51.426;7.714;2022-07-21T01:26:23;99984.22;;;18.71;100.00
71195;BME280;58908;51.426;7.714;2022-07-21T01:28:49;99992.63;;;18.67;100.00
71195;BME280;58908;51.426;7.714;2022-07-21T01:31:14;99988.47;;;18.74;100.00
71195;BME280;58908;51.426;7.714;2022-07-21T01:33:39;99985.09;;;18.72;100.00
71195;BME280;58908;51.426;7.714;2022-07-21T01:36:05;99976.34;;;18.70;100.00
71195;BME280;58908;51.426;7.714;2022-07-21T01:38:30;99973.34;;;18.63;100.00
71195;BME280;58908;51.426;7.714;2022-07-21T01:41:14;99975.91;;;18.65;100.00
71195;BME280;58908;51.426;7.714;2022-07-21T01:43:55;99970.50;;;18.55;100.00
71195;BME280;58908;51.426;7.714;2022-07-21T01:46:20;99974.28;;;18.53;100.00
71195;BME280;58908;51.426;7.714;2022-07-21T01:48:45;99974.78;;;18.47;100.00
71195;BME280;58908;51.426;7.714;2022-07-21T01:51:11;99972.28;;;18.45;100.00
71195;BME280;58908;51.426;7.714;2022-07-21T01:53:36;99972.50;;;18.42;100.00
71195;BME280;58908;51.426;7.714;2022-07-21T01:56:01;99965.38;;;18.43;100.00
71195;BME280;58908;51.426;7.714;2022-07-21T01:58:27;99981.91;;;18.37;100.00
71195;BME280;58908;51.426;7.714;2022-07-21T02:00:52;99990.81;;;18.26;100.00
71195;BME280;58908;51.426;7.714;2022-07-21T02:03:17;100004.28;;;18.25;100.00
71195;BME280;58908;51.426;7.714;2022-07-21T02:05:42;99995.13;;;18.18;100.00
71195;BME280;58908;51.426;7.714;2022-07-21T02:08:07;99996.81;;;18.19;100.00
71195;BME280;58908;51.426;7.714;2022-07-21T02:10:33;99992.81;;;18.13;100.00
71195;BME280;58908;51.426;7.714;2022-07-21T02:12:58;99986.63;;;18.13;100.00
71195;BME280;58908;51.426;7.714;2022-07-21T02:15:23;99999.91;;;18.03;100.00
71195;BME280;58908;51.426;7.714;2022-07-21T02:17:48;100005.03;;;17.95;100.00
71195;BME280;58908;51.426;7.714;2022-07-21T02:20:13;100007.09;;;17.92;100.00
71195;BME280;58908;51.426;7.714;2022-07-21T02:22:39;100011.81;;;17.68;100.00
71195;BME280;58908;51.426;7.714;2022-07-21T02:25:04;100013.03;;;17.64;100.00
71195;BME280;58908;51.426;7.714;2022-07-21T02:27:29;100007.97;;;17.61;100.00
71195;BME280;58908;51.426;7.714;2022-07-21T02:29:54;99998.13;;;17.61;100.00
71195;BME280;58908;51.426;7.714;2022-07-21T02:32:19;100006.13;;;17.61;100.00
71195;BME280;58908;51.426;7.714;2022-07-21T02:34:45;100003.56;;;17.60;100.00
71195;BME280;58908;51.426;7.714;2022-07-21T02:37:10;100005.16;;;17.51;100.00
71195;BME280;58908;51.426;7.714;2022-07-21T02:39:35;100009.06;;;17.47;100.00
71195;BME280;58908;51.426;7.714;2022-07-21T02:42:00;100014.16;;;17.50;100.00
71195;BME280;58908;51.426;7.714;2022-07-21T02:44:25;100019.84;;;17.46;100.00
71195;BME280;58908;51.426;7.714;2022-07-21T02:46:50;100011.50;;;17.39;100.00
71195;BME280;58908;51.426;7.714;2022-07-21T02:49:16;100015.59;;;17.32;100.00
71195;BME280;58908;51.426;7.714;2022-07-21T02:51:41;100012.09;;;17.32;100.00
71195;BME280;58908;51.426;7.714;2022-07-21T02:54:06;100019.22;;;17.31;100.00
71195;BME280;58908;51.426;7.714;2022-07-21T02:56:31;100011.38;;;17.30;100.00
71195;BME280;58908;51.426;7.714;2022-07-21T02:58:56;100000.81;;;17.28;100.00
71195;BME280;58908;51.426;7.714;2022-07-21T03:01:21;100013.31;;;17.28;100.00
71195;BME280;58908;51.426;7.714;2022-07-21T03:03:46;100006.88;;;17.30;100.00
71195;BME280;58908;51.426;7.714;2022-07-21T03:06:12;100000.72;;;17.30;100.00
71195;BME280;58908;51.426;7.714;2022-07-21T03:08:37;100000.09;;;17.26;100.00
71195;BME280;58908;51.426;7.714;2022-07-21T03:11:02;100004.00;;;17.22;100.00
71195;BME280;58908;51.426;7.714;2022-07-21T03:13:28;100002.16;;;17.23;100.00
71195;BME280;58908;51.426;7.714;2022-07-21T03:15:53;100015.13;;;17.16;100.00
71195;BME280;58908;51.426;7.714;2022-07-21T03:18:18;100012.72;;;17.24;100.00
71195;BME280;58908;51.426;7.714;2022-07-21T03:20:44;100005.56;;;17.14;100.00
71195;BME280;58908;51.426;7.714;2022-07-21T03:23:09;100016.34;;;17.23;100.00
71195;BME280;58908;51.426;7.714;2022-07-21T03:25:35;100011.75;;;17.14;100.00
71195;BME280;58908;51.426;7.714;2022-07-21T03:28:00;100012.59;;;17.15;100.00
71195;BME280;58908;51.426;7.714;2022-07-21T03:30:26;100007.41;;;17.13;100.00
71195;BME280;58908;51.426;7.714;2022-07-21T03:32:51;100008.13;;;17.15;100.00
71195;BME280;58908;51.426;7.714;2022-07-21T03:35:18;100012.47;;;17.16;100.00
71195;BME280;58908;51.426;7.714;2022-07-21T03:37:44;100004.84;;;17.01;100.00
71195;BME280;58908;51.426;7.714;2022-07-21T03:40:10;100008.72;;;17.08;100.00
71195;BME280;58908;51.426;7.714;2022-07-21T03:42:36;100007.75;;;17.09;100.00
71195;BME280;58908;51.426;7.714;2022-07-21T03:45:01;99997.81;;;17.11;100.00
71195;BME280;58908;51.426;7.714;2022-07-21T03:47:26;100002.44;;;17.09;100.00
71195;BME280;58908;51.426;7.714;2022-07-21T03:49:51;99991.41;;;17.02;100.00
71195;BME280;58908;51.426;7.714;2022-07-21T03:52:16;99991.41;;;17.02;100.00
71195;BME280;58908;51.426;7.714;2022-07-21T03:54:41;99984.03;;;17.06;100.00
71195;BME280;58908;51.426;7.714;2022-07-21T03:57:06;99977.72;;;17.07;100.00
71195;BME280;58908;51.426;7.714;2022-07-21T03:59:32;99972.25;;;17.08;100.00
71195;BME280;58908;51.426;7.714;2022-07-21T04:01:57;99957.72;;;17.12;100.00
71195;BME280;58908;51.426;7.714;2022-07-21T04:04:22;99951.41;;;17.13;100.00
71195;BME280;58908;51.426;7.714;2022-07-21T04:06:47;99947.16;;;17.11;100.00
71195;BME280;58908;51.426;7.714;2022-07-21T04:09:13;99940.75;;;17.13;100.00
71195;BME280;58908;51.426;7.714;2022-07-21T04:11:38;99925.34;;;17.17;100.00
71195;BME280;58908;51.426;7.714;2022-07-21T04:14:03;99913.13;;;17.14;100.00
71195;BME280;58908;51.426;7.714;2022-07-21T04:16:28;99905.94;;;17.15;100.00
71195;BME280;58908;51.426;7.714;2022-07-21T04:18:53;99905.47;;;17.21;100.00
71195;BME280;58908;51.426;7.714;2022-07-21T04:21:19;99908.13;;;17.21;100.00
71195;BME280;58908;51.426;7.714;2022-07-21T04:23:44;99910.19;;;17.17;100.00
71195;BME280;58908;51.426;7.714;2022-07-21T04:26:09;99924.97;;;17.21;100.00
71195;BME280;58908;51.426;7.714;2022-07-21T04:28:34;99928.41;;;17.12;100.00
71195;BME280;58908;51.426;7.714;2022-07-21T04:30:59;99943.53;;;17.12;100.00
71195;BME280;58908;51.426;7.714;2022-07-21T04:33:25;99952.97;;;17.16;100.00
71195;BME280;58908;51.426;7.714;2022-07-21T04:35:50;99948.75;;;17.13;100.00
71195;BME280;58908;51.426;7.714;2022-07-21T04:38:15;99950.44;;;17.14;100.00
71195;BME280;58908;51.426;7.714;2022-07-21T04:40:40;99953.47;;;17.10;100.00
71195;BME280;58908;51.426;7.714;2022-07-21T04:43:06;99947.88;;;17.13;100.00
71195;BME280;58908;51.426;7.714;2022-07-21T04:45:31;99945.09;;;17.14;100.00
71195;BME280;58908;51.426;7.714;2022-07-21T04:47:56;99949.44;;;17.26;100.00
71195;BME280;58908;51.426;7.714;2022-07-21T04:50:23;99946.06;;;17.24;100.00
71195;BME280;58908;51.426;7.714;2022-07-21T04:52:48;99963.84;;;17.24;100.00
71195;BME280;58908;51.426;7.714;2022-07-21T04:55:13;99958.03;;;17.30;100.00
71195;BME280;58908;51.426;7.714;2022-07-21T04:57:40;99951.13;;;17.38;100.00
71195;BME280;58908;51.426;7.714;2022-07-21T05:00:06;99957.75;;;17.55;100.00
71195;BME280;58908;51.426;7.714;2022-07-21T05:02:32;99961.38;;;17.65;100.00
71195;BME280;58908;51.426;7.714;2022-07-21T05:04:57;99966.66;;;17.76;100.00
71195;BME280;58908;51.426;7.714;2022-07-21T05:07:22;99970.31;;;17.75;100.00
71195;BME280;58908;51.426;7.714;2022-07-21T05:09:48;99975.53;;;17.65;100.00
71195;BME280;58908;51.426;7.714;2022-07-21T05:12:13;99979.38;;;17.52;100.00
71195;BME280;58908;51.426;7.714;2022-07-21T05:14:38;99976.09;;;17.48;100.00
71195;BME280;58908;51.426;7.714;2022-07-21T05:17:03;99974.88;;;17.41;100.00
71195;BME280;58908;51.426;7.714;2022-07-21T05:19:28;99979.50;;;17.39;100.00
71195;BME280;58908;51.426;7.714;2022-07-21T05:21:53;99976.09;;;17.48;100.00
71195;BME280;58908;51.426;7.714;2022-07-21T05:24:19;99964.34;;;17.40;100.00
71195;BME280;58908;51.426;7.714;2022-07-21T05:26:44;99971.34;;;17.52;100.00
71195;BME280;58908;51.426;7.714;2022-07-21T05:29:09;99972.69;;;17.57;100.00
71195;BME280;58908;51.426;7.714;2022-07-21T05:31:34;99970.69;;;17.70;100.00
71195;BME280;58908;51.426;7.714;2022-07-21T05:33:59;99964.22;;;18.04;100.00
71195;BME280;58908;51.426;7.714;2022-07-21T05:36:24;99970.81;;;18.41;100.00
71195;BME280;58908;51.426;7.714;2022-07-21T05:38:50;99972.22;;;18.25;100.00
71195;BME280;58908;51.426;7.714;2022-07-21T05:41:15;99978.94;;;18.19;100.00
71195;BME280;58908;51.426;7.714;2022-07-21T05:43:40;99983.56;;;17.97;100.00
71195;BME280;58908;51.426;7.714;2022-07-21T05:46:05;99990.00;;;17.94;100.00
71195;BME280;58908;51.426;7.714;2022-07-21T05:48:30;99988.63;;;18.00;100.00
71195;BME280;58908;51.426;7.714;2022-07-21T05:50:55;99985.78;;;18.12;100.00
71195;BME280;58908;51.426;7.714;2022-07-21T05:53:20;99986.63;;;18.44;100.00
71195;BME280;58908;51.426;7.714;2022-07-21T05:55:47;99989.28;;;18.74;100.00
71195;BME280;58908;51.426;7.714;2022-07-21T05:58:12;99989.38;;;18.84;99.65
71195;BME280;58908;51.426;7.714;2022-07-21T06:00:37;99995.13;;;18.89;100.00
71195;BME280;58908;51.426;7.714;2022-07-21T06:03:02;99979.91;;;19.10;97.69
71195;BME280;58908;51.426;7.714;2022-07-21T06:05:27;99981.63;;;19.20;96.37
71195;BME280;58908;51.426;7.714;2022-07-21T06:07:52;99978.50;;;19.15;98.18
71195;BME280;58908;51.426;7.714;2022-07-21T06:10:18;99971.09;;;19.19;97.01
71195;BME280;58908;51.426;7.714;2022-07-21T06:12:43;99985.53;;;19.16;97.85
71195;BME280;58908;51.426;7.714;2022-07-21T06:15:09;99983.56;;;19.09;97.58
71195;BME280;58908;51.426;7.714;2022-07-21T06:17:41;99977.88;;;19.32;95.22
71195;BME280;58908;51.426;7.714;2022-07-21T06:20:07;99977.03;;;19.32;95.32
71195;BME280;58908;51.426;7.714;2022-07-21T06:22:33;99982.72;;;19.57;94.35
71195;BME280;58908;51.426;7.714;2022-07-21T06:24:58;99985.16;;;19.79;92.72
71195;BME280;58908;51.426;7.714;2022-07-21T06:27:24;99982.34;;;19.90;92.73
71195;BME280;58908;51.426;7.714;2022-07-21T06:29:49;99985.63;;;20.22;88.69
71195;BME280;58908;51.426;7.714;2022-07-21T06:32:14;99987.91;;;20.63;88.36
71195;BME280;58908;51.426;7.714;2022-07-21T06:34:39;99980.66;;;20.82;85.29
71195;BME280;58908;51.426;7.714;2022-07-21T06:37:04;99982.25;;;20.75;87.11
71195;BME280;58908;51.426;7.714;2022-07-21T06:39:30;99987.00;;;20.81;84.59
71195;BME280;58908;51.426;7.714;2022-07-21T06:41:55;99990.19;;;20.48;86.18
71195;BME280;58908;51.426;7.714;2022-07-21T06:44:20;99991.94;;;20.30;89.25
71195;BME280;58908;51.426;7.714;2022-07-21T06:46:45;99993.50;;;20.14;87.82
71195;BME280;58908;51.426;7.714;2022-07-21T06:49:10;100002.78;;;20.10;89.46
71195;BME280;58908;51.426;7.714;2022-07-21T06:51:35;100004.06;;;20.06;88.72
71195;BME280;58908;51.426;7.714;2022-07-21T06:54:00;99999.44;;;20.17;91.59
71195;BME280;58908;51.426;7.714;2022-07-21T06:56:26;100005.59;;;19.80;90.48
71195;BME280;58908;51.426;7.714;2022-07-21T06:58:51;100007.13;;;19.82;89.43
71195;BME280;58908;51.426;7.714;2022-07-21T07:01:16;100013.63;;;19.80;88.91
71195;BME280;58908;51.426;7.714;2022-07-21T07:03:43;100005.84;;;19.58;92.93
71195;BME280;58908;51.426;7.714;2022-07-21T07:06:08;100013.97;;;19.47;91.70
71195;BME280;58908;51.426;7.714;2022-07-21T07:08:34;100013.44;;;19.62;89.92
71195;BME280;58908;51.426;7.714;2022-07-21T07:10:59;100020.56;;;19.43;93.38
71195;BME280;58908;51.426;7.714;2022-07-21T07:13:24;100014.78;;;19.38;90.99
71195;BME280;58908;51.426;7.714;2022-07-21T07:15:49;100018.47;;;19.47;93.54
71195;BME280;58908;51.426;7.714;2022-07-21T07:18:14;100021.16;;;19.47;94.47
71195;BME280;58908;51.426;7.714;2022-07-21T07:20:40;100016.06;;;19.44;91.01
71195;BME280;58908;51.426;7.714;2022-07-21T07:23:05;100014.69;;;19.49;90.92
71195;BME280;58908;51.426;7.714;2022-07-21T07:25:30;100017.88;;;19.43;92.32
71195;BME280;58908;51.426;7.714;2022-07-21T07:27:56;100012.25;;;19.37;90.96
71195;BME280;58908;51.426;7.714;2022-07-21T07:30:22;100020.28;;;20.04;88.16
71195;BME280;58908;51.426;7.714;2022-07-21T07:32:47;100007.09;;;22.72;76.83
71195;BME280;58908;51.426;7.714;2022-07-21T07:35:13;100007.38;;;24.51;67.67
71195;BME280;58908;51.426;7.714;2022-07-21T07:37:39;100000.44;;;24.80;67.37
71195;BME280;58908;51.426;7.714;2022-07-21T07:40:05;100005.97;;;25.11;64.94
71195;BME280;58908;51.426;7.714;2022-07-21T07:42:30;99999.47;;;24.18;69.35
71195;BME280;58908;51.426;7.714;2022-07-21T07:44:56;99995.44;;;22.89;69.37
71195;BME280;58908;51.426;7.714;2022-07-21T07:47:21;99991.38;;;22.00;79.32
71195;BME280;58908;51.426;7.714;2022-07-21T07:49:46;99998.47;;;22.26;80.51
71195;BME280;58908;51.426;7.714;2022-07-21T07:52:14;99998.53;;;22.34;73.68
71195;BME280;58908;51.426;7.714;2022-07-21T07:54:39;100006.19;;;22.64;76.83
71195;BME280;58908;51.426;7.714;2022-07-21T07:57:04;100002.22;;;22.33;75.35
71195;BME280;58908;51.426;7.714;2022-07-21T07:59:29;100009.06;;;21.75;77.40
71195;BME280;58908;51.426;7.714;2022-07-21T08:01:54;100011.63;;;21.13;78.67
71195;BME280;58908;51.426;7.714;2022-07-21T08:04:20;100015.38;;;20.93;82.23
71195;BME280;58908;51.426;7.714;2022-07-21T08:06:45;100028.78;;;20.84;80.93
71195;BME280;58908;51.426;7.714;2022-07-21T08:09:10;100027.13;;;20.64;81.20
71195;BME280;58908;51.426;7.714;2022-07-21T08:11:35;100036.75;;;20.47;83.85
71195;BME280;58908;51.426;7.714;2022-07-21T08:14:00;100024.81;;;20.23;85.87
71195;BME280;58908;51.426;7.714;2022-07-21T08:16:25;100018.66;;;20.68;82.25
71195;BME280;58908;51.426;7.714;2022-07-21T08:18:51;100023.19;;;20.68;87.11
71195;BME280;58908;51.426;7.714;2022-07-21T08:21:16;100022.31;;;20.77;82.06
71195;BME280;58908;51.426;7.714;2022-07-21T08:23:41;100015.28;;;20.66;81.33
71195;BME280;58908;51.426;7.714;2022-07-21T08:26:06;100009.56;;;20.98;81.92
71195;BME280;58908;51.426;7.714;2022-07-21T08:28:31;100012.69;;;20.93;85.09
71195;BME280;58908;51.426;7.714;2022-07-21T08:30:57;100004.75;;;21.11;81.54
71195;BME280;58908;51.426;7.714;2022-07-21T08:33:22;100011.44;;;21.24;82.36
71195;BME280;58908;51.426;7.714;2022-07-21T08:35:47;100018.16;;;21.01;80.84
71195;BME280;58908;51.426;7.714;2022-07-21T08:38:12;100024.47;;;20.54;83.17
71195;BME280;58908;51.426;7.714;2022-07-21T08:40:38;100028.56;;;20.58;79.90
71195;BME280;58908;51.426;7.714;2022-07-21T08:43:04;100023.41;;;20.93;82.09
71195;BME280;58908;51.426;7.714;2022-07-21T08:45:29;100023.03;;;21.25;81.73
71195;BME280;58908;51.426;7.714;2022-07-21T08:47:56;100020.88;;;21.55;80.40
71195;BME280;58908;51.426;7.714;2022-07-21T08:50:22;100021.72;;;22.52;76.85
71195;BME280;58908;51.426;7.714;2022-07-21T08:52:47;100020.38;;;24.40;66.24
71195;BME280;58908;51.426;7.714;2022-07-21T08:55:12;100023.19;;;23.15;68.71
71195;BME280;58908;51.426;7.714;2022-07-21T08:57:39;100028.16;;;23.02;71.15
71195;BME280;58908;51.426;7.714;2022-07-21T09:00:05;100027.53;;;22.83;73.22
71195;BME280;58908;51.426;7.714;2022-07-21T09:02:31;100033.16;;;22.54;75.09
71195;BME280;58908;51.426;7.714;2022-07-21T09:04:57;100025.34;;;22.43;73.42
71195;BME280;58908;51.426;7.714;2022-07-21T09:07:22;100017.38;;;22.77;71.97
71195;BME280;58908;51.426;7.714;2022-07-21T09:09:55;100019.69;;;22.46;70.95
71195;BME280;58908;51.426;7.714;2022-07-21T09:12:20;100022.56;;;22.70;73.89
71195;BME280;58908;51.426;7.714;2022-07-21T09:14:45;100019.59;;;22.38;73.97
71195;BME280;58908;51.426;7.714;2022-07-21T09:17:10;100017.53;;;22.50;73.16
71195;BME280;58908;51.426;7.714;2022-07-21T09:19:37;100019.47;;;22.40;71.15
71195;BME280;58908;51.426;7.714;2022-07-21T09:22:13;100018.91;;;22.19;73.89
71195;BME280;58908;51.426;7.714;2022-07-21T09:24:39;100015.63;;;22.68;71.31
71195;BME280;58908;51.426;7.714;2022-07-21T09:27:10;100023.44;;;23.04;69.32
71195;BME280;58908;51.426;7.714;2022-07-21T09:29:39;100023.03;;;22.66;66.92
71195;BME280;58908;51.426;7.714;2022-07-21T09:32:21;100022.97;;;22.58;68.29
71195;BME280;58908;51.426;7.714;2022-07-21T09:34:48;100019.16;;;22.08;70.13
71195;BME280;58908;51.426;7.714;2022-07-21T09:37:14;100018.47;;;21.89;70.83
71195;BME280;58908;51.426;7.714;2022-07-21T09:42:14;100017.44;;;21.72;72.55
71195;BME280;58908;51.426;7.714;2022-07-21T09:44:41;100007.16;;;21.68;73.27
71195;BME280;58908;51.426;7.714;2022-07-21T09:47:11;100017.75;;;22.21;72.61
71195;BME280;58908;51.426;7.714;2022-07-21T09:49:37;100011.13;;;23.61;65.03
71195;BME280;58908;51.426;7.714;2022-07-21T09:52:10;100006.03;;;23.58;63.43
71195;BME280;58908;51.426;7.714;2022-07-21T09:54:42;100005.75;;;23.27;65.72
71195;BME280;58908;51.426;7.714;2022-07-21T09:57:07;100015.78;;;22.92;67.91
71195;BME280;58908;51.426;7.714;2022-07-21T09:59:32;100012.69;;;23.38;64.02
71195;BME280;58908;51.426;7.714;2022-07-21T10:01:58;100012.91;;;23.44;65.37
71195;BME280;58908;51.426;7.714;2022-07-21T10:04:23;100013.25;;;23.49;64.04
71195;BME280;58908;51.426;7.714;2022-07-21T10:06:49;100021.19;;;23.17;68.14
71195;BME280;58908;51.426;7.714;2022-07-21T10:09:15;100020.16;;;22.93;67.11
71195;BME280;58908;51.426;7.714;2022-07-21T10:11:40;100015.03;;;22.74;65.11
71195;BME280;58908;51.426;7.714;2022-07-21T10:14:08;100017.03;;;22.72;67.58
71195;BME280;58908;51.426;7.714;2022-07-21T10:16:33;100020.91;;;23.03;68.77
71195;BME280;58908;51.426;7.714;2022-07-21T10:24:18;100016.19;;;23.22;64.36
71195;BME280;58908;51.426;7.714;2022-07-21T10:32:11;100017.69;;;23.25;62.86
71195;BME280;58908;51.426;7.714;2022-07-21T10:34:36;100010.50;;;23.08;65.09
71195;BME280;58908;51.426;7.714;2022-07-21T10:37:01;100019.13;;;22.86;65.39
71195;BME280;58908;51.426;7.714;2022-07-21T10:39:27;100020.56;;;23.23;64.80
71195;BME280;58908;51.426;7.714;2022-07-21T10:41:53;100025.09;;;23.23;64.67
71195;BME280;58908;51.426;7.714;2022-07-21T10:47:03;100022.41;;;22.72;65.95
71195;BME280;58908;51.426;7.714;2022-07-21T10:49:40;100025.34;;;22.61;67.21
71195;BME280;58908;51.426;7.714;2022-07-21T10:52:28;100024.41;;;22.52;68.69
71195;BME280;58908;51.426;7.714;2022-07-21T10:57:39;100031.41;;;21.93;66.49
71195;BME280;58908;51.426;7.714;2022-07-21T11:02:49;100044.31;;;21.36;75.41
71195;BME280;58908;51.426;7.714;2022-07-21T11:05:15;100039.78;;;21.63;78.56
71195;BME280;58908;51.426;7.714;2022-07-21T11:10:24;100042.41;;;22.00;74.22
71195;BME280;58908;51.426;7.714;2022-07-21T11:12:54;100040.25;;;22.03;74.00
71195;BME280;58908;51.426;7.714;2022-07-21T11:15:42;100032.25;;;22.11;74.87
71195;BME280;58908;51.426;7.714;2022-07-21T11:18:05;100031.34;;;22.20;73.66
71195;BME280;58908;51.426;7.714;2022-07-21T11:20:30;100030.13;;;22.14;74.14
71195;BME280;58908;51.426;7.714;2022-07-21T11:22:55;100036.41;;;22.23;76.48
71195;BME280;58908;51.426;7.714;2022-07-21T11:25:28;100035.09;;;22.27;74.29
71195;BME280;58908;51.426;7.714;2022-07-21T11:27:53;100025.13;;;22.19;74.42
71195;BME280;58908;51.426;7.714;2022-07-21T11:30:19;100027.13;;;22.17;75.01
71195;BME280;58908;51.426;7.714;2022-07-21T11:32:47;100023.19;;;21.77;76.00
71195;BME280;58908;51.426;7.714;2022-07-21T11:35:13;100034.31;;;21.55;78.34
71195;BME280;58908;51.426;7.714;2022-07-21T11:37:42;100045.53;;;21.78;77.37
71195;BME280;58908;51.426;7.714;2022-07-21T11:40:09;100029.41;;;21.78;76.40
71195;BME280;58908;51.426;7.714;2022-07-21T11:42:34;100042.00;;;21.95;76.36
71195;BME280;58908;51.426;7.714;2022-07-21T11:45:00;100037.75;;;21.75;76.95
71195;BME280;58908;51.426;7.714;2022-07-21T11:47:25;100045.13;;;21.73;77.34
71195;BME280;58908;51.426;7.714;2022-07-21T11:49:54;100043.31;;;21.91;76.77
71195;BME280;58908;51.426;7.714;2022-07-21T11:52:23;100042.00;;;21.77;76.33
71195;BME280;58908;51.426;7.714;2022-07-21T11:54:50;100035.72;;;21.86;77.24
71195;BME280;58908;51.426;7.714;2022-07-21T11:57:16;100041.91;;;21.60;78.41
71195;BME280;58908;51.426;7.714;2022-07-21T11:59:42;100045.84;;;21.38;80.45
71195;BME280;58908;51.426;7.714;2022-07-21T12:02:12;100046.06;;;21.27;83.69
71195;BME280;58908;51.426;7.714;2022-07-21T12:04:39;100049.63;;;21.09;85.33
71195;BME280;58908;51.426;7.714;2022-07-21T12:09:39;100051.84;;;20.48;89.22
71195;BME280;58908;51.426;7.714;2022-07-21T12:12:05;100057.34;;;20.37;90.47
71195;BME280;58908;51.426;7.714;2022-07-21T12:14:40;100059.47;;;20.15;91.78
71195;BME280;58908;51.426;7.714;2022-07-21T12:17:06;100061.69;;;19.91;97.14
71195;BME280;58908;51.426;7.714;2022-07-21T12:19:31;100058.50;;;19.57;96.13
71195;BME280;58908;51.426;7.714;2022-07-21T12:21:56;100064.00;;;19.56;96.50
71195;BME280;58908;51.426;7.714;2022-07-21T12:24:21;100066.50;;;19.48;97.08
71195;BME280;58908;51.426;7.714;2022-07-21T12:26:47;100073.53;;;19.40;97.98
71195;BME280;58908;51.426;7.714;2022-07-21T12:29:28;100072.25;;;19.44;98.79
71195;BME280;58908;51.426;7.714;2022-07-21T12:31:53;100076.59;;;19.35;98.40
71195;BME280;58908;51.426;7.714;2022-07-21T12:34:18;100072.38;;;19.42;99.41
71195;BME280;58908;51.426;7.714;2022-07-21T12:36:44;100080.00;;;19.47;99.63
71195;BME280;58908;51.426;7.714;2022-07-21T12:39:16;100082.44;;;19.50;99.52
71195;BME280;58908;51.426;7.714;2022-07-21T12:42:00;100081.59;;;19.49;99.63
71195;BME280;58908;51.426;7.714;2022-07-21T12:44:25;100086.59;;;19.33;98.53
71195;BME280;58908;51.426;7.714;2022-07-21T12:46:51;100082.44;;;19.50;99.06
71195;BME280;58908;51.426;7.714;2022-07-21T12:49:16;100080.06;;;19.56;97.58
71195;BME280;58908;51.426;7.714;2022-07-21T12:51:42;100076.00;;;19.61;96.00
71195;BME280;58908;51.426;7.714;2022-07-21T12:54:19;100071.25;;;19.84;97.05
71195;BME280;58908;51.426;7.714;2022-07-21T12:56:44;100077.28;;;19.76;95.55
71195;BME280;58908;51.426;7.714;2022-07-21T12:59:09;100078.69;;;19.71;96.91
71195;BME280;58908;51.426;7.714;2022-07-21T13:01:38;100066.63;;;19.95;97.22
71195;BME280;58908;51.426;7.714;2022-07-21T13:04:04;100071.72;;;20.08;97.98
71195;BME280;58908;51.426;7.714;2022-07-21T13:06:29;100073.88;;;20.14;98.07
71195;BME280;58908;51.426;7.714;2022-07-21T13:08:54;100073.00;;;20.04;98.67
71195;BME280;58908;51.426;7.714;2022-07-21T13:11:20;100060.81;;;19.90;98.68